sensor_id;sensor_type;location;lat;lon;timestamp;P1;durP1;ratioP1;P2;durP2;ratioP2
8596;SDS011;4336;49.310;8.646;2023-09-08T00:02:27;6.27;;;5.73;;
8596;SDS011;4336;49.310;8.646;2023-09-08T00:04:53;9.40;;;6.60;;
8596;SDS011;4336;49.310;8.646;2023-09-08T00:07:19;11.93;;;7.30;;
8596;SDS011;4336;49.310;8.646;2023-09-08T00:09:45;15.80;;;8.03;;
8596;SDS011;4336;49.310;8.646;2023-09-08T00:12:11;10.27;;;7.67;;
8596;SDS011;4336;49.310;8.646;2023-09-08T00:14:37;11.37;;;6.33;;
8596;SDS011;4336;49.310;8.646;2023-09-08T00:17:02;14.40;;;6.90;;
8596;SDS011;4336;49.310;8.646;2023-09-08T00:19:29;9.37;;;8.30;;
8596;SDS011;4336;49.310;8.646;2023-09-08T00:21:56;10.30;;;7.60;;
8596;SDS011;4336;49.310;8.646;2023-09-08T00:24:21;11.40;;;7.27;;
8596;SDS011;4336;49.310;8.646;2023-09-08T00:26:47;10.50;;;7.80;;
8596;SDS011;4336;49.310;8.646;2023-09-08T00:29:13;9.00;;;7.67;;
8596;SDS011;4336;49.310;8.646;2023-09-08T00:31:40;10.17;;;7.20;;
8596;SDS011;4336;49.310;8.646;2023-09-08T00:34:06;7.60;;;6.90;;
8596;SDS011;4336;49.310;8.646;2023-09-08T00:36:32;12.60;;;7.17;;
8596;SDS011;4336;49.310;8.646;2023-09-08T00:38:58;9.70;;;7.87;;
8596;SDS011;4336;49.310;8.646;2023-09-08T00:41:24;8.40;;;7.53;;
8596;SDS011;4336;49.310;8.646;2023-09-08T00:43:50;9.20;;;6.93;;
8596;SDS011;4336;49.310;8.646;2023-09-08T00:46:16;8.27;;;7.33;;
8596;SDS011;4336;49.310;8.646;2023-09-08T00:48:42;7.17;;;6.53;;
8596;SDS011;4336;49.310;8.646;2023-09-08T00:51:08;7.10;;;6.40;;
8596;SDS011;4336;49.310;8.646;2023-09-08T00:53:35;8.50;;;6.90;;
8596;SDS011;4336;49.310;8.646;2023-09-08T00:56:02;9.20;;;7.37;;
8596;SDS011;4336;49.310;8.646;2023-09-08T00:58:28;8.60;;;7.23;;
8596;SDS011;4336;49.310;8.646;2023-09-08T01:00:54;9.90;;;7.77;;
8596;SDS011;4336;49.310;8.646;2023-09-08T01:03:23;8.27;;;7.50;;
8596;SDS011;4336;49.310;8.646;2023-09-08T01:05:49;10.80;;;7.20;;
8596;SDS011;4336;49.310;8.646;2023-09-08T01:08:15;8.03;;;7.23;;
8596;SDS011;4336;49.310;8.646;2023-09-08T01:10:41;8.73;;;7.70;;
8596;SDS011;4336;49.310;8.646;2023-09-08T01:13:07;9.47;;;7.73;;
8596;SDS011;4336;49.310;8.646;2023-09-08T01:15:33;9.30;;;7.53;;
8596;SDS011;4336;49.310;8.646;2023-09-08T01:17:59;9.03;;;8.20;;
8596;SDS011;4336;49.310;8.646;2023-09-08T01:20:25;8.10;;;7.40;;
8596;SDS011;4336;49.310;8.646;2023-09-08T01:26:17;8.23;;;7.47;;
8596;SDS011;4336;49.310;8.646;2023-09-08T01:28:49;15.10;;;7.37;;
8596;SDS011;4336;49.310;8.646;2023-09-08T01:31:16;11.90;;;7.53;;
8596;SDS011;4336;49.310;8.646;2023-09-08T01:33:42;13.73;;;7.83;;
8596;SDS011;4336;49.310;8.646;2023-09-08T01:36:09;8.63;;;7.30;;
8596;SDS011;4336;49.310;8.646;2023-09-08T01:38:35;9.07;;;8.17;;
8596;SDS011;4336;49.310;8.646;2023-09-08T01:41:01;8.53;;;7.37;;
8596;SDS011;4336;49.310;8.646;2023-09-08T01:43:27;8.37;;;7.57;;
8596;SDS011;4336;49.310;8.646;2023-09-08T01:45:53;10.40;;;7.37;;
8596;SDS011;4336;49.310;8.646;2023-09-08T01:48:19;8.77;;;6.30;;
8596;SDS011;4336;49.310;8.646;2023-09-08T01:50:44;6.90;;;6.20;;
8596;SDS011;4336;49.310;8.646;2023-09-08T01:53:12;10.13;;;7.53;;
8596;SDS011;4336;49.310;8.646;2023-09-08T01:55:38;8.57;;;7.40;;
8596;SDS011;4336;49.310;8.646;2023-09-08T01:58:03;9.20;;;7.00;;
8596;SDS011;4336;49.310;8.646;2023-09-08T02:00:29;10.70;;;7.97;;
8596;SDS011;4336;49.310;8.646;2023-09-08T02:02:55;7.73;;;6.93;;
8596;SDS011;4336;49.310;8.646;2023-09-08T02:05:21;8.20;;;7.10;;
8596;SDS011;4336;49.310;8.646;2023-09-08T02:07:48;10.03;;;6.77;;
8596;SDS011;4336;49.310;8.646;2023-09-08T02:10:14;9.57;;;7.73;;
8596;SDS011;4336;49.310;8.646;2023-09-08T02:12:40;8.13;;;7.33;;
8596;SDS011;4336;49.310;8.646;2023-09-08T02:15:06;7.43;;;6.37;;
8596;SDS011;4336;49.310;8.646;2023-09-08T02:17:33;8.17;;;7.37;;
8596;SDS011;4336;49.310;8.646;2023-09-08T02:19:58;8.57;;;7.40;;
8596;SDS011;4336;49.310;8.646;2023-09-08T02:22:24;7.67;;;7.07;;
8596;SDS011;4336;49.310;8.646;2023-09-08T02:24:50;10.33;;;7.50;;
8596;SDS011;4336;49.310;8.646;2023-09-08T02:27:18;12.73;;;7.60;;
8596;SDS011;4336;49.310;8.646;2023-09-08T02:29:47;8.87;;;6.57;;
8596;SDS011;4336;49.310;8.646;2023-09-08T02:32:12;6.90;;;6.20;;
8596;SDS011;4336;49.310;8.646;2023-09-08T02:34:40;10.50;;;7.90;;
8596;SDS011;4336;49.310;8.646;2023-09-08T02:37:08;8.13;;;7.43;;
8596;SDS011;4336;49.310;8.646;2023-09-08T02:39:34;12.53;;;7.30;;
8596;SDS011;4336;49.310;8.646;2023-09-08T02:42:00;8.37;;;6.90;;
8596;SDS011;4336;49.310;8.646;2023-09-08T02:44:27;9.23;;;7.87;;
8596;SDS011;4336;49.310;8.646;2023-09-08T02:46:54;9.13;;;7.90;;
8596;SDS011;4336;49.310;8.646;2023-09-08T02:49:20;10.83;;;7.33;;
8596;SDS011;4336;49.310;8.646;2023-09-08T02:51:46;8.10;;;7.37;;
8596;SDS011;4336;49.310;8.646;2023-09-08T02:54:12;8.80;;;7.80;;
8596;SDS011;4336;49.310;8.646;2023-09-08T02:56:38;8.20;;;7.23;;
8596;SDS011;4336;49.310;8.646;2023-09-08T02:59:04;9.33;;;7.40;;
8596;SDS011;4336;49.310;8.646;2023-09-08T03:01:29;9.43;;;8.43;;
8596;SDS011;4336;49.310;8.646;2023-09-08T03:03:55;8.63;;;7.83;;
8596;SDS011;4336;49.310;8.646;2023-09-08T03:06:21;9.90;;;7.47;;
8596;SDS011;4336;49.310;8.646;2023-09-08T03:08:48;8.37;;;7.20;;
8596;SDS011;4336;49.310;8.646;2023-09-08T03:11:14;10.63;;;7.40;;
8596;SDS011;4336;49.310;8.646;2023-09-08T03:13:40;10.47;;;8.10;;
8596;SDS011;4336;49.310;8.646;2023-09-08T03:16:06;11.97;;;7.87;;
8596;SDS011;4336;49.310;8.646;2023-09-08T03:18:33;8.57;;;7.70;;
8596;SDS011;4336;49.310;8.646;2023-09-08T03:21:01;8.50;;;7.57;;
8596;SDS011;4336;49.310;8.646;2023-09-08T03:23:37;8.67;;;7.87;;
8596;SDS011;4336;49.310;8.646;2023-09-08T03:26:04;11.70;;;7.60;;
8596;SDS011;4336;49.310;8.646;2023-09-08T03:28:31;8.80;;;7.87;;
8596;SDS011;4336;49.310;8.646;2023-09-08T03:30:59;10.50;;;7.47;;
8596;SDS011;4336;49.310;8.646;2023-09-08T03:33:25;8.13;;;7.43;;
8596;SDS011;4336;49.310;8.646;2023-09-08T03:35:51;8.53;;;7.73;;
8596;SDS011;4336;49.310;8.646;2023-09-08T03:38:17;9.00;;;8.20;;
8596;SDS011;4336;49.310;8.646;2023-09-08T03:40:43;9.47;;;7.20;;
8596;SDS011;4336;49.310;8.646;2023-09-08T03:43:09;12.23;;;7.80;;
8596;SDS011;4336;49.310;8.646;2023-09-08T03:45:35;8.53;;;7.73;;
8596;SDS011;4336;49.310;8.646;2023-09-08T03:48:00;7.73;;;7.13;;
8596;SDS011;4336;49.310;8.646;2023-09-08T03:50:26;8.37;;;7.47;;
8596;SDS011;4336;49.310;8.646;2023-09-08T03:52:52;9.37;;;8.07;;
8596;SDS011;4336;49.310;8.646;2023-09-08T03:55:18;8.33;;;7.30;;
8596;SDS011;4336;49.310;8.646;2023-09-08T03:57:44;7.87;;;7.10;;
8596;SDS011;4336;49.310;8.646;2023-09-08T04:00:10;9.80;;;7.80;;
8596;SDS011;4336;49.310;8.646;2023-09-08T04:02:41;9.93;;;7.73;;
8596;SDS011;4336;49.310;8.646;2023-09-08T04:05:07;9.97;;;7.20;;
8596;SDS011;4336;49.310;8.646;2023-09-08T04:07:35;15.97;;;8.27;;
8596;SDS011;4336;49.310;8.646;2023-09-08T04:10:02;8.47;;;7.60;;
8596;SDS011;4336;49.310;8.646;2023-09-08T04:12:28;12.37;;;7.73;;
8596;SDS011;4336;49.310;8.646;2023-09-08T04:14:54;7.93;;;7.13;;
8596;SDS011;4336;49.310;8.646;2023-09-08T04:17:20;8.30;;;7.50;;
8596;SDS011;4336;49.310;8.646;2023-09-08T04:19:45;8.57;;;7.53;;
8596;SDS011;4336;49.310;8.646;2023-09-08T04:22:11;8.07;;;7.27;;
8596;SDS011;4336;49.310;8.646;2023-09-08T04:24:37;8.37;;;7.13;;
8596;SDS011;4336;49.310;8.646;2023-09-08T04:27:04;9.30;;;8.50;;
8596;SDS011;4336;49.310;8.646;2023-09-08T04:29:30;9.60;;;7.77;;
8596;SDS011;4336;49.310;8.646;2023-09-08T04:31:55;10.93;;;7.30;;
8596;SDS011;4336;49.310;8.646;2023-09-08T04:34:21;8.37;;;7.67;;
8596;SDS011;4336;49.310;8.646;2023-09-08T04:36:47;11.07;;;8.60;;
8596;SDS011;4336;49.310;8.646;2023-09-08T04:39:12;11.97;;;7.93;;
8596;SDS011;4336;49.310;8.646;2023-09-08T04:41:40;11.43;;;9.30;;
8596;SDS011;4336;49.310;8.646;2023-09-08T04:44:06;10.13;;;9.10;;
8596;SDS011;4336;49.310;8.646;2023-09-08T04:46:33;9.73;;;8.73;;
8596;SDS011;4336;49.310;8.646;2023-09-08T04:48:59;10.30;;;8.97;;
8596;SDS011;4336;49.310;8.646;2023-09-08T04:51:25;10.00;;;9.00;;
8596;SDS011;4336;49.310;8.646;2023-09-08T04:53:51;9.97;;;8.83;;
8596;SDS011;4336;49.310;8.646;2023-09-08T04:56:17;10.03;;;8.97;;
8596;SDS011;4336;49.310;8.646;2023-09-08T04:58:43;9.47;;;8.27;;
8596;SDS011;4336;49.310;8.646;2023-09-08T05:01:09;13.83;;;8.80;;
8596;SDS011;4336;49.310;8.646;2023-09-08T05:03:35;10.00;;;8.97;;
8596;SDS011;4336;49.310;8.646;2023-09-08T05:06:01;11.27;;;10.17;;
8596;SDS011;4336;49.310;8.646;2023-09-08T05:08:27;9.23;;;8.43;;
8596;SDS011;4336;49.310;8.646;2023-09-08T05:10:53;11.27;;;9.93;;
8596;SDS011;4336;49.310;8.646;2023-09-08T05:13:19;12.57;;;10.03;;
8596;SDS011;4336;49.310;8.646;2023-09-08T05:15:47;10.93;;;9.93;;
8596;SDS011;4336;49.310;8.646;2023-09-08T05:18:15;11.77;;;9.87;;
8596;SDS011;4336;49.310;8.646;2023-09-08T05:20:41;11.47;;;10.47;;
8596;SDS011;4336;49.310;8.646;2023-09-08T05:23:07;11.97;;;10.77;;
8596;SDS011;4336;49.310;8.646;2023-09-08T05:25:33;12.67;;;10.20;;
8596;SDS011;4336;49.310;8.646;2023-09-08T05:27:58;11.30;;;9.13;;
8596;SDS011;4336;49.310;8.646;2023-09-08T05:30:25;14.83;;;11.40;;
8596;SDS011;4336;49.310;8.646;2023-09-08T05:32:51;14.00;;;11.10;;
8596;SDS011;4336;49.310;8.646;2023-09-08T05:35:17;13.67;;;10.33;;
8596;SDS011;4336;49.310;8.646;2023-09-08T05:37:43;15.60;;;10.77;;
8596;SDS011;4336;49.310;8.646;2023-09-08T05:40:08;11.80;;;10.57;;
8596;SDS011;4336;49.310;8.646;2023-09-08T05:42:34;12.80;;;11.33;;
8596;SDS011;4336;49.310;8.646;2023-09-08T05:45:00;12.37;;;11.20;;
8596;SDS011;4336;49.310;8.646;2023-09-08T05:47:26;15.10;;;12.43;;
8596;SDS011;4336;49.310;8.646;2023-09-08T05:49:52;17.07;;;11.30;;
8596;SDS011;4336;49.310;8.646;2023-09-08T05:52:18;14.67;;;12.57;;
8596;SDS011;4336;49.310;8.646;2023-09-08T05:54:45;12.70;;;11.40;;
8596;SDS011;4336;49.310;8.646;2023-09-08T05:57:11;15.67;;;13.87;;
8596;SDS011;4336;49.310;8.646;2023-09-08T05:59:37;18.67;;;11.67;;
8596;SDS011;4336;49.310;8.646;2023-09-08T06:02:03;14.13;;;12.17;;
8596;SDS011;4336;49.310;8.646;2023-09-08T06:04:28;13.03;;;11.23;;
8596;SDS011;4336;49.310;8.646;2023-09-08T06:06:57;15.13;;;11.13;;
8596;SDS011;4336;49.310;8.646;2023-09-08T06:09:23;12.30;;;10.80;;
8596;SDS011;4336;49.310;8.646;2023-09-08T06:11:49;12.67;;;10.53;;
8596;SDS011;4336;49.310;8.646;2023-09-08T06:14:15;12.43;;;9.47;;
8596;SDS011;4336;49.310;8.646;2023-09-08T06:16:43;11.53;;;9.83;;
8596;SDS011;4336;49.310;8.646;2023-09-08T06:19:11;13.03;;;9.20;;
8596;SDS011;4336;49.310;8.646;2023-09-08T06:21:37;12.40;;;9.77;;
8596;SDS011;4336;49.310;8.646;2023-09-08T06:24:04;9.47;;;8.63;;
8596;SDS011;4336;49.310;8.646;2023-09-08T06:26:31;13.13;;;7.50;;
8596;SDS011;4336;49.310;8.646;2023-09-08T06:28:57;12.77;;;7.80;;
8596;SDS011;4336;49.310;8.646;2023-09-08T06:31:23;9.53;;;7.87;;
8596;SDS011;4336;49.310;8.646;2023-09-08T06:33:49;8.00;;;7.23;;
8596;SDS011;4336;49.310;8.646;2023-09-08T06:36:18;10.43;;;7.43;;
8596;SDS011;4336;49.310;8.646;2023-09-08T06:38:45;11.13;;;7.32;;
8596;SDS011;4336;49.310;8.646;2023-09-08T06:41:12;9.07;;;6.27;;
8596;SDS011;4336;49.310;8.646;2023-09-08T06:43:38;7.83;;;7.03;;
8596;SDS011;4336;49.310;8.646;2023-09-08T06:46:09;12.48;;;7.30;;
8596;SDS011;4336;49.310;8.646;2023-09-08T06:48:35;10.55;;;6.63;;
8596;SDS011;4336;49.310;8.646;2023-09-08T06:51:02;8.07;;;6.85;;
8596;SDS011;4336;49.310;8.646;2023-09-08T06:53:28;8.40;;;7.30;;
8596;SDS011;4336;49.310;8.646;2023-09-08T06:55:53;8.18;;;6.97;;
8596;SDS011;4336;49.310;8.646;2023-09-08T06:58:19;8.25;;;6.93;;
8596;SDS011;4336;49.310;8.646;2023-09-08T07:00:46;10.68;;;6.97;;
8596;SDS011;4336;49.310;8.646;2023-09-08T07:03:12;9.27;;;6.47;;
8596;SDS011;4336;49.310;8.646;2023-09-08T07:05:41;9.43;;;6.60;;
8596;SDS011;4336;49.310;8.646;2023-09-08T07:08:08;7.70;;;6.72;;
8596;SDS011;4336;49.310;8.646;2023-09-08T07:10:33;11.07;;;6.55;;
8596;SDS011;4336;49.310;8.646;2023-09-08T07:12:59;6.93;;;6.38;;
8596;SDS011;4336;49.310;8.646;2023-09-08T07:15:25;9.98;;;7.35;;
8596;SDS011;4336;49.310;8.646;2023-09-08T07:17:52;15.93;;;7.32;;
8596;SDS011;4336;49.310;8.646;2023-09-08T07:20:18;11.80;;;7.40;;
8596;SDS011;4336;49.310;8.646;2023-09-08T07:22:44;7.65;;;6.38;;
8596;SDS011;4336;49.310;8.646;2023-09-08T07:25:12;9.23;;;6.00;;
8596;SDS011;4336;49.310;8.646;2023-09-08T07:27:38;7.50;;;6.30;;
8596;SDS011;4336;49.310;8.646;2023-09-08T07:30:05;10.85;;;6.13;;
8596;SDS011;4336;49.310;8.646;2023-09-08T07:32:32;12.23;;;7.80;;
8596;SDS011;4336;49.310;8.646;2023-09-08T07:34:58;12.68;;;7.78;;
8596;SDS011;4336;49.310;8.646;2023-09-08T07:37:24;7.65;;;6.80;;
8596;SDS011;4336;49.310;8.646;2023-09-08T07:39:51;8.27;;;6.82;;
8596;SDS011;4336;49.310;8.646;2023-09-08T07:42:18;16.48;;;6.60;;
8596;SDS011;4336;49.310;8.646;2023-09-08T07:44:44;9.77;;;7.10;;
8596;SDS011;4336;49.310;8.646;2023-09-08T07:47:10;9.73;;;7.00;;
8596;SDS011;4336;49.310;8.646;2023-09-08T07:49:36;7.40;;;6.55;;
8596;SDS011;4336;49.310;8.646;2023-09-08T07:52:02;10.88;;;6.15;;
8596;SDS011;4336;49.310;8.646;2023-09-08T07:54:29;11.82;;;7.05;;
8596;SDS011;4336;49.310;8.646;2023-09-08T07:56:56;8.07;;;6.22;;
8596;SDS011;4336;49.310;8.646;2023-09-08T07:59:21;7.55;;;6.57;;
8596;SDS011;4336;49.310;8.646;2023-09-08T08:01:47;7.05;;;6.18;;
8596;SDS011;4336;49.310;8.646;2023-09-08T08:04:13;7.45;;;6.72;;
8596;SDS011;4336;49.310;8.646;2023-09-08T08:06:38;6.13;;;4.88;;
8596;SDS011;4336;49.310;8.646;2023-09-08T08:09:04;11.15;;;6.55;;
8596;SDS011;4336;49.310;8.646;2023-09-08T08:11:30;6.95;;;6.35;;
8596;SDS011;4336;49.310;8.646;2023-09-08T08:13:56;9.77;;;6.55;;
8596;SDS011;4336;49.310;8.646;2023-09-08T08:16:22;9.70;;;6.55;;
8596;SDS011;4336;49.310;8.646;2023-09-08T08:18:48;10.32;;;6.63;;
8596;SDS011;4336;49.310;8.646;2023-09-08T08:21:14;7.55;;;5.85;;
8596;SDS011;4336;49.310;8.646;2023-09-08T08:23:40;10.73;;;7.13;;
8596;SDS011;4336;49.310;8.646;2023-09-08T08:26:05;13.52;;;6.45;;
8596;SDS011;4336;49.310;8.646;2023-09-08T08:28:32;11.63;;;6.03;;
8596;SDS011;4336;49.310;8.646;2023-09-08T08:30:57;12.68;;;6.55;;
8596;SDS011;4336;49.310;8.646;2023-09-08T08:33:23;7.97;;;6.40;;
8596;SDS011;4336;49.310;8.646;2023-09-08T08:35:51;8.25;;;7.00;;
8596;SDS011;4336;49.310;8.646;2023-09-08T08:38:18;15.63;;;6.40;;
8596;SDS011;4336;49.310;8.646;2023-09-08T08:40:44;11.75;;;7.15;;
8596;SDS011;4336;49.310;8.646;2023-09-08T08:43:10;9.15;;;6.45;;
8596;SDS011;4336;49.310;8.646;2023-09-08T08:45:37;7.60;;;5.75;;
8596;SDS011;4336;49.310;8.646;2023-09-08T08:48:04;6.50;;;5.18;;
8596;SDS011;4336;49.310;8.646;2023-09-08T08:50:31;8.95;;;7.18;;
8596;SDS011;4336;49.310;8.646;2023-09-08T08:52:58;11.10;;;6.82;;
8596;SDS011;4336;49.310;8.646;2023-09-08T08:55:24;9.10;;;6.18;;
8596;SDS011;4336;49.310;8.646;2023-09-08T08:57:51;9.02;;;7.00;;
8596;SDS011;4336;49.310;8.646;2023-09-08T09:00:17;9.73;;;5.97;;
8596;SDS011;4336;49.310;8.646;2023-09-08T09:02:43;7.90;;;6.60;;
8596;SDS011;4336;49.310;8.646;2023-09-08T09:05:13;9.52;;;6.72;;
8596;SDS011;4336;49.310;8.646;2023-09-08T09:07:39;9.63;;;6.60;;
8596;SDS011;4336;49.310;8.646;2023-09-08T09:10:07;13.68;;;6.80;;
8596;SDS011;4336;49.310;8.646;2023-09-08T09:12:33;8.05;;;6.70;;
8596;SDS011;4336;49.310;8.646;2023-09-08T09:15:04;6.78;;;6.05;;
8596;SDS011;4336;49.310;8.646;2023-09-08T09:17:34;9.05;;;6.88;;
8596;SDS011;4336;49.310;8.646;2023-09-08T09:22:39;9.00;;;6.00;;
8596;SDS011;4336;49.310;8.646;2023-09-08T09:25:05;6.90;;;6.20;;
8596;SDS011;4336;49.310;8.646;2023-09-08T09:27:33;10.50;;;6.32;;
8596;SDS011;4336;49.310;8.646;2023-09-08T09:30:04;11.10;;;7.18;;
8596;SDS011;4336;49.310;8.646;2023-09-08T09:32:30;10.75;;;6.40;;
8596;SDS011;4336;49.310;8.646;2023-09-08T09:34:56;13.23;;;6.80;;
8596;SDS011;4336;49.310;8.646;2023-09-08T09:37:23;8.10;;;6.80;;
8596;SDS011;4336;49.310;8.646;2023-09-08T09:39:49;9.20;;;5.25;;
8596;SDS011;4336;49.310;8.646;2023-09-08T09:42:18;11.10;;;6.97;;
8596;SDS011;4336;49.310;8.646;2023-09-08T09:44:49;12.70;;;5.93;;
8596;SDS011;4336;49.310;8.646;2023-09-08T09:47:17;9.60;;;7.15;;
8596;SDS011;4336;49.310;8.646;2023-09-08T09:49:46;8.02;;;6.88;;
8596;SDS011;4336;49.310;8.646;2023-09-08T09:52:13;11.43;;;5.90;;
8596;SDS011;4336;49.310;8.646;2023-09-08T09:54:48;8.55;;;6.93;;
8596;SDS011;4336;49.310;8.646;2023-09-08T09:57:20;7.25;;;5.78;;
8596;SDS011;4336;49.310;8.646;2023-09-08T09:59:46;10.23;;;6.78;;
8596;SDS011;4336;49.310;8.646;2023-09-08T10:02:15;7.78;;;6.68;;
8596;SDS011;4336;49.310;8.646;2023-09-08T10:04:45;8.68;;;6.50;;
8596;SDS011;4336;49.310;8.646;2023-09-08T10:07:14;15.82;;;6.97;;
8596;SDS011;4336;49.310;8.646;2023-09-08T10:09:41;7.85;;;7.00;;
8596;SDS011;4336;49.310;8.646;2023-09-08T10:12:07;8.85;;;6.53;;
8596;SDS011;4336;49.310;8.646;2023-09-08T10:14:38;8.73;;;6.40;;
8596;SDS011;4336;49.310;8.646;2023-09-08T10:17:06;7.90;;;6.00;;
8596;SDS011;4336;49.310;8.646;2023-09-08T10:19:35;8.27;;;5.60;;
8596;SDS011;4336;49.310;8.646;2023-09-08T10:22:06;7.35;;;6.65;;
8596;SDS011;4336;49.310;8.646;2023-09-08T10:24:35;6.88;;;6.05;;
8596;SDS011;4336;49.310;8.646;2023-09-08T10:29:34;6.82;;;6.22;;
8596;SDS011;4336;49.310;8.646;2023-09-08T10:32:01;7.43;;;6.57;;
8596;SDS011;4336;49.310;8.646;2023-09-08T10:34:27;10.00;;;6.80;;
8596;SDS011;4336;49.310;8.646;2023-09-08T10:36:54;10.35;;;5.60;;
8596;SDS011;4336;49.310;8.646;2023-09-08T10:39:30;6.50;;;5.78;;
8596;SDS011;4336;49.310;8.646;2023-09-08T10:44:43;6.78;;;6.15;;
8596;SDS011;4336;49.310;8.646;2023-09-08T10:47:09;9.05;;;6.13;;
8596;SDS011;4336;49.310;8.646;2023-09-08T10:49:35;9.18;;;6.55;;
8596;SDS011;4336;49.310;8.646;2023-09-08T10:52:07;9.82;;;6.45;;
8596;SDS011;4336;49.310;8.646;2023-09-08T10:54:43;7.07;;;5.07;;
8596;SDS011;4336;49.310;8.646;2023-09-08T10:57:14;7.07;;;6.40;;
8596;SDS011;4336;49.310;8.646;2023-09-08T11:00:00;7.25;;;6.10;;
8596;SDS011;4336;49.310;8.646;2023-09-08T11:02:37;9.50;;;6.53;;
8596;SDS011;4336;49.310;8.646;2023-09-08T11:05:11;7.22;;;5.57;;
8596;SDS011;4336;49.310;8.646;2023-09-08T11:07:39;10.38;;;6.43;;
8596;SDS011;4336;49.310;8.646;2023-09-08T11:10:06;8.80;;;6.55;;
8596;SDS011;4336;49.310;8.646;2023-09-08T11:12:32;10.05;;;6.20;;
8596;SDS011;4336;49.310;8.646;2023-09-08T11:14:59;17.40;;;6.50;;
8596;SDS011;4336;49.310;8.646;2023-09-08T11:17:33;5.72;;;5.22;;
8596;SDS011;4336;49.310;8.646;2023-09-08T11:20:00;9.60;;;5.78;;
8596;SDS011;4336;49.310;8.646;2023-09-08T11:22:33;6.70;;;5.65;;
8596;SDS011;4336;49.310;8.646;2023-09-08T11:25:00;7.32;;;5.85;;
8596;SDS011;4336;49.310;8.646;2023-09-08T11:27:29;10.30;;;6.47;;
8596;SDS011;4336;49.310;8.646;2023-09-08T11:29:55;7.43;;;6.60;;
8596;SDS011;4336;49.310;8.646;2023-09-08T11:32:22;7.95;;;5.60;;
8596;SDS011;4336;49.310;8.646;2023-09-08T11:34:48;7.45;;;6.68;;
8596;SDS011;4336;49.310;8.646;2023-09-08T11:37:15;13.63;;;6.63;;
8596;SDS011;4336;49.310;8.646;2023-09-08T11:39:43;8.45;;;6.13;;
8596;SDS011;4336;49.310;8.646;2023-09-08T11:42:12;7.05;;;6.10;;
8596;SDS011;4336;49.310;8.646;2023-09-08T11:44:39;5.57;;;5.13;;
8596;SDS011;4336;49.310;8.646;2023-09-08T11:47:09;6.90;;;6.20;;
8596;SDS011;4336;49.310;8.646;2023-09-08T11:52:02;6.75;;;6.15;;
8596;SDS011;4336;49.310;8.646;2023-09-08T11:54:29;7.03;;;6.32;;
8596;SDS011;4336;49.310;8.646;2023-09-08T11:56:56;10.38;;;5.90;;
8596;SDS011;4336;49.310;8.646;2023-09-08T11:59:26;10.88;;;5.97;;
8596;SDS011;4336;49.310;8.646;2023-09-08T12:01:53;9.77;;;5.60;;
8596;SDS011;4336;49.310;8.646;2023-09-08T12:04:19;6.32;;;5.72;;
8596;SDS011;4336;49.310;8.646;2023-09-08T12:06:46;8.68;;;6.00;;
8596;SDS011;4336;49.310;8.646;2023-09-08T12:09:15;9.60;;;5.75;;
8596;SDS011;4336;49.310;8.646;2023-09-08T12:11:41;10.20;;;5.70;;
8596;SDS011;4336;49.310;8.646;2023-09-08T12:14:09;9.95;;;7.10;;
8596;SDS011;4336;49.310;8.646;2023-09-08T12:16:36;13.40;;;6.78;;
8596;SDS011;4336;49.310;8.646;2023-09-08T12:19:02;10.55;;;6.20;;
8596;SDS011;4336;49.310;8.646;2023-09-08T12:21:28;8.40;;;5.90;;
8596;SDS011;4336;49.310;8.646;2023-09-08T12:23:53;9.18;;;6.03;;
8596;SDS011;4336;49.310;8.646;2023-09-08T12:26:20;9.43;;;6.68;;
8596;SDS011;4336;49.310;8.646;2023-09-08T12:28:46;8.35;;;5.93;;
8596;SDS011;4336;49.310;8.646;2023-09-08T12:31:13;7.68;;;6.25;;
8596;SDS011;4336;49.310;8.646;2023-09-08T12:33:39;16.63;;;7.10;;
8596;SDS011;4336;49.310;8.646;2023-09-08T12:38:41;8.38;;;6.25;;
8596;SDS011;4336;49.310;8.646;2023-09-08T12:41:06;8.07;;;6.30;;
8596;SDS011;4336;49.310;8.646;2023-09-08T12:43:32;6.53;;;5.80;;
8596;SDS011;4336;49.310;8.646;2023-09-08T12:45:58;7.80;;;6.03;;
8596;SDS011;4336;49.310;8.646;2023-09-08T12:48:24;11.18;;;7.30;;
8596;SDS011;4336;49.310;8.646;2023-09-08T12:50:50;6.97;;;6.25;;
8596;SDS011;4336;49.310;8.646;2023-09-08T12:53:16;10.98;;;6.20;;
8596;SDS011;4336;49.310;8.646;2023-09-08T12:55:43;10.93;;;5.55;;
8596;SDS011;4336;49.310;8.646;2023-09-08T12:58:09;6.97;;;4.65;;
8596;SDS011;4336;49.310;8.646;2023-09-08T13:00:34;6.82;;;6.20;;
8596;SDS011;4336;49.310;8.646;2023-09-08T13:03:01;7.72;;;6.03;;
8596;SDS011;4336;49.310;8.646;2023-09-08T13:05:27;8.65;;;5.53;;
8596;SDS011;4336;49.310;8.646;2023-09-08T13:07:53;9.82;;;6.05;;
8596;SDS011;4336;49.310;8.646;2023-09-08T13:10:19;8.73;;;5.28;;
8596;SDS011;4336;49.310;8.646;2023-09-08T13:12:45;11.00;;;6.10;;
8596;SDS011;4336;49.310;8.646;2023-09-08T13:15:11;9.60;;;5.90;;
8596;SDS011;4336;49.310;8.646;2023-09-08T13:17:37;15.20;;;6.20;;
8596;SDS011;4336;49.310;8.646;2023-09-08T13:20:03;6.60;;;5.90;;
8596;SDS011;4336;49.310;8.646;2023-09-08T13:22:29;9.60;;;5.50;;
8596;SDS011;4336;49.310;8.646;2023-09-08T13:24:55;7.25;;;5.43;;
8596;SDS011;4336;49.310;8.646;2023-09-08T13:27:21;7.05;;;6.35;;
8596;SDS011;4336;49.310;8.646;2023-09-08T13:29:46;6.07;;;5.47;;
8596;SDS011;4336;49.310;8.646;2023-09-08T13:32:13;12.35;;;5.95;;
8596;SDS011;4336;49.310;8.646;2023-09-08T13:34:39;7.88;;;6.32;;
8596;SDS011;4336;49.310;8.646;2023-09-08T13:37:05;7.13;;;6.07;;
8596;SDS011;4336;49.310;8.646;2023-09-08T13:39:31;7.93;;;5.93;;
8596;SDS011;4336;49.310;8.646;2023-09-08T13:41:58;9.13;;;5.60;;
8596;SDS011;4336;49.310;8.646;2023-09-08T13:44:25;6.30;;;5.70;;
8596;SDS011;4336;49.310;8.646;2023-09-08T13:46:51;6.90;;;6.13;;
8596;SDS011;4336;49.310;8.646;2023-09-08T13:49:18;6.75;;;6.00;;
8596;SDS011;4336;49.310;8.646;2023-09-08T13:51:45;6.03;;;5.00;;
8596;SDS011;4336;49.310;8.646;2023-09-08T13:54:11;9.88;;;5.50;;
8596;SDS011;4336;49.310;8.646;2023-09-08T13:56:41;7.53;;;5.95;;
8596;SDS011;4336;49.310;8.646;2023-09-08T13:59:07;6.57;;;5.95;;
8596;SDS011;4336;49.310;8.646;2023-09-08T14:01:33;5.75;;;5.25;;
8596;SDS011;4336;49.310;8.646;2023-09-08T14:04:00;6.80;;;6.10;;
8596;SDS011;4336;49.310;8.646;2023-09-08T14:06:28;6.57;;;5.97;;
8596;SDS011;4336;49.310;8.646;2023-09-08T14:08:54;6.70;;;6.10;;
8596;SDS011;4336;49.310;8.646;2023-09-08T14:11:21;6.72;;;5.88;;
8596;SDS011;4336;49.310;8.646;2023-09-08T14:13:47;6.38;;;5.68;;
8596;SDS011;4336;49.310;8.646;2023-09-08T14:16:13;10.88;;;6.25;;
8596;SDS011;4336;49.310;8.646;2023-09-08T14:18:39;14.18;;;6.00;;
8596;SDS011;4336;49.310;8.646;2023-09-08T14:21:05;6.53;;;5.90;;
8596;SDS011;4336;49.310;8.646;2023-09-08T14:23:32;7.65;;;5.82;;
8596;SDS011;4336;49.310;8.646;2023-09-08T14:25:59;7.97;;;5.47;;
8596;SDS011;4336;49.310;8.646;2023-09-08T14:28:25;18.15;;;6.38;;
8596;SDS011;4336;49.310;8.646;2023-09-08T14:30:54;11.45;;;5.72;;
8596;SDS011;4336;49.310;8.646;2023-09-08T14:33:20;6.22;;;5.53;;
8596;SDS011;4336;49.310;8.646;2023-09-08T14:35:46;11.25;;;6.68;;
8596;SDS011;4336;49.310;8.646;2023-09-08T14:38:16;6.55;;;5.68;;
8596;SDS011;4336;49.310;8.646;2023-09-08T14:40:42;7.07;;;6.38;;
8596;SDS011;4336;49.310;8.646;2023-09-08T14:43:09;7.40;;;6.07;;
8596;SDS011;4336;49.310;8.646;2023-09-08T14:45:34;9.45;;;5.90;;
8596;SDS011;4336;49.310;8.646;2023-09-08T14:48:00;10.82;;;6.40;;
8596;SDS011;4336;49.310;8.646;2023-09-08T14:50:26;9.63;;;5.82;;
8596;SDS011;4336;49.310;8.646;2023-09-08T14:52:52;8.57;;;6.47;;
8596;SDS011;4336;49.310;8.646;2023-09-08T14:55:17;8.50;;;5.38;;
8596;SDS011;4336;49.310;8.646;2023-09-08T14:57:43;6.38;;;5.63;;
8596;SDS011;4336;49.310;8.646;2023-09-08T15:00:09;9.13;;;5.47;;
8596;SDS011;4336;49.310;8.646;2023-09-08T15:02:35;9.98;;;6.03;;
8596;SDS011;4336;49.310;8.646;2023-09-08T15:05:01;6.43;;;5.93;;
8596;SDS011;4336;49.310;8.646;2023-09-08T15:07:26;6.43;;;5.80;;
8596;SDS011;4336;49.310;8.646;2023-09-08T15:09:52;8.05;;;6.32;;
8596;SDS011;4336;49.310;8.646;2023-09-08T15:12:18;7.95;;;5.78;;
8596;SDS011;4336;49.310;8.646;2023-09-08T15:14:44;12.23;;;5.70;;
8596;SDS011;4336;49.310;8.646;2023-09-08T15:17:13;10.07;;;6.25;;
8596;SDS011;4336;49.310;8.646;2023-09-08T15:19:39;6.72;;;6.10;;
8596;SDS011;4336;49.310;8.646;2023-09-08T15:22:05;12.27;;;6.38;;
8596;SDS011;4336;49.310;8.646;2023-09-08T15:24:31;7.10;;;5.93;;